Terminal Aerodrome Forecast
Issued by NWS Wichita, KS

Home | Current Version | Previous Version | Graphics & Text | Print | Product List | Glossary On
Versions: 1 2 3 4 5 6 7 8 9 10 11 12 13 14 15
000
FTUS43 KICT 241100
TAFICT
TAF
KICT 241138Z 2412/2512 10005KT P6SM FEW250
     FM241500 14010KT P6SM SKC
     FM241700 17012G20KT P6SM SKC
     FM241900 18018G25KT P6SM SKC
     FM250000 16012KT P6SM SCT250=

USA.gov is the U.S. government's official web portal to all federal, state and local government web resources and services.